Time;durP1;ratioP1;P1;durP2;ratioP2;P2;SDS_P1;SDS_P2;PMS_P1;PMS_P2;Temp;Humidity;BMP_temperature;BMP_pressure;BME280_temperature;BME280_humidity;BME280_pressure;Samples;Min_cycle;Max_cycle;Signal;HPM_P1;HPM_P2
2021/04/22 00:01:02;;;;;;;;;6.50;6.50;;;;;15.83;49.45;98111.63;4775187;29;104312;-96
2021/04/22 00:03:29;;;;;;;;;7.75;7.75;;;;;15.80;49.83;98103.13;4738920;29;102237;-96
2021/04/22 00:05:56;;;;;;;;;9.25;8.50;;;;;15.79;50.51;98102.28;4763205;29;102464;-96
2021/04/22 00:08:22;;;;;;;;;6.50;5.75;;;;;15.82;50.00;98101.78;4739064;29;102698;-96
2021/04/22 00:10:51;;;;;;;;;10.25;8.00;;;;;15.83;50.01;98099.88;4777388;29;104269;-96
2021/04/22 00:13:22;;;;;;;;;8.25;7.00;;;;;15.78;49.72;98091.63;4755561;29;103295;-96
2021/04/22 00:15:50;;;;;;;;;12.00;10.50;;;;;15.82;49.79;98098.22;4706111;29;102418;-96
2021/04/22 00:18:17;;;;;;;;;8.50;7.75;;;;;15.77;49.91;98081.78;4773032;29;102547;-96
2021/04/22 00:20:44;;;;;;;;;6.50;6.50;;;;;15.79;50.19;98082.38;4754211;29;105690;-96
2021/04/22 00:23:12;;;;;;;;;11.75;9.00;;;;;15.76;49.60;98071.97;4735669;29;102513;-96
2021/04/22 00:25:43;;;;;;;;;14.50;10.25;;;;;15.76;49.75;98059.13;4757273;29;102788;-96
2021/04/22 00:28:11;;;;;;;;;8.00;8.00;;;;;15.76;49.97;98061.06;4741597;29;102713;-96
2021/04/22 00:30:38;;;;;;;;;11.25;9.75;;;;;15.77;50.01;98066.25;4753757;29;104070;-96
2021/04/22 00:33:11;;;;;;;;;9.25;7.50;;;;;15.78;49.60;98064.34;4744910;29;102449;-96
2021/04/22 00:35:38;;;;;;;;;7.00;7.00;;;;;15.77;49.75;98077.16;4738941;29;102285;-96
2021/04/22 00:38:06;;;;;;;;;8.00;7.75;;;;;15.77;49.61;98077.16;4731042;29;103406;-96
2021/04/22 00:40:34;;;;;;;;;10.75;8.75;;;;;15.75;50.10;98068.41;4768820;29;104048;-96
2021/04/22 00:43:05;;;;;;;;;9.00;8.00;;;;;15.76;49.93;98067.31;4754713;29;102318;-96
2021/04/22 00:45:32;;;;;;;;;12.25;9.25;;;;;15.75;50.19;98067.59;4751805;29;102434;-96
2021/04/22 00:47:59;;;;;;;;;10.00;8.00;;;;;15.76;49.86;98069.25;4752326;29;102299;-96
2021/04/22 00:50:31;;;;;;;;;7.25;7.00;;;;;15.75;49.82;98062.13;4741140;29;104309;-96
2021/04/22 00:53:01;;;;;;;;;8.50;6.25;;;;;15.74;49.87;98066.75;4752717;29;102453;-96
2021/04/22 00:55:28;;;;;;;;;9.25;9.00;;;;;15.72;49.80;98063.44;4774283;29;103852;-96
2021/04/22 00:57:56;;;;;;;;;9.75;6.75;;;;;15.68;49.60;98056.00;4757044;29;103526;-96
2021/04/22 01:00:31;;;;;;;;;9.00;9.00;;;;;15.70;49.67;98064.78;4772459;29;103072;-96
2021/04/22 01:02:58;;;;;;;;;9.50;9.50;;;;;15.71;49.75;98059.09;4717946;29;102805;-96
2021/04/22 01:05:32;;;;;;;;;11.25;9.50;;;;;15.71;49.90;98061.81;4759502;29;102247;-96
2021/04/22 01:07:59;;;;;;;;;9.25;7.25;;;;;15.70;49.58;98075.66;4752311;29;102682;-96
2021/04/22 01:10:26;;;;;;;;;13.25;8.75;;;;;15.65;50.18;98065.50;4750118;29;103986;-96
2021/04/22 01:12:53;;;;;;;;;8.25;8.00;;;;;15.63;49.69;98063.03;4753151;29;103646;-96
2021/04/22 01:15:21;;;;;;;;;8.00;8.00;;;;;15.69;49.55;98074.00;4756181;29;104492;-96
2021/04/22 01:17:48;;;;;;;;;10.25;8.75;;;;;15.66;49.89;98075.34;4728465;29;103127;-96
2021/04/22 01:20:26;;;;;;;;;9.00;9.00;;;;;15.68;49.85;98075.91;4761526;29;104224;-96
2021/04/22 01:22:54;;;;;;;;;7.50;7.00;;;;;15.65;49.69;98068.22;4763028;29;102477;-96
2021/04/22 01:25:27;;;;;;;;;8.75;8.25;;;;;15.66;50.05;98069.91;4713347;29;104415;-96
2021/04/22 01:27:54;;;;;;;;;8.75;8.25;;;;;15.67;49.61;98076.97;4774348;29;102223;-96
2021/04/22 01:30:24;;;;;;;;;10.50;9.50;;;;;15.64;49.92;98072.03;4752837;29;103273;-96
2021/04/22 01:32:51;;;;;;;;;8.25;6.25;;;;;15.62;49.72;98058.63;4737090;29;102693;-96
2021/04/22 01:35:21;;;;;;;;;7.75;7.25;;;;;15.62;50.15;98063.28;4735527;29;102201;-96
2021/04/22 01:37:48;;;;;;;;;9.25;8.50;;;;;15.63;49.93;98064.91;4739928;29;104453;-96
2021/04/22 01:40:15;;;;;;;;;8.25;8.00;;;;;15.65;49.69;98073.69;4711684;29;104029;-96
2021/04/22 01:42:43;;;;;;;;;7.25;6.75;;;;;15.60;49.75;98076.31;4744163;29;102588;-96
2021/04/22 01:45:10;;;;;;;;;8.00;7.00;;;;;15.59;49.56;98069.22;4754320;29;103108;-96
2021/04/22 01:47:38;;;;;;;;;8.75;8.00;;;;;15.64;49.49;98077.47;4761449;29;104192;-96
2021/04/22 01:50:06;;;;;;;;;8.25;6.00;;;;;15.58;49.80;98073.00;4759110;29;103071;-96
2021/04/22 01:52:33;;;;;;;;;8.75;7.75;;;;;15.60;49.89;98074.41;4762024;29;102220;-96
2021/04/22 01:55:01;;;;;;;;;9.75;8.00;;;;;15.63;49.79;98081.28;4745098;29;104219;-96
2021/04/22 01:57:27;;;;;;;;;11.00;8.75;;;;;15.61;49.87;98073.34;4764461;29;102203;-96
2021/04/22 01:59:54;;;;;;;;;10.50;8.50;;;;;15.57;49.83;98061.31;4777032;29;103184;-96
2021/04/22 02:02:22;;;;;;;;;8.00;7.25;;;;;15.55;49.58;98057.97;4772630;29;102443;-96
2021/04/22 02:04:49;;;;;;;;;12.25;7.25;;;;;15.59;49.73;98070.03;4777206;29;102054;-96
2021/04/22 02:07:16;;;;;;;;;9.25;7.25;;;;;15.55;49.91;98054.44;4757649;29;102473;-96
2021/04/22 02:09:43;;;;;;;;;9.00;7.00;;;;;15.60;49.73;98065.41;4756332;29;104164;-96
2021/04/22 02:12:10;;;;;;;;;10.25;7.75;;;;;15.55;49.52;98057.16;4746270;29;102282;-96
2021/04/22 02:14:38;;;;;;;;;9.75;7.25;;;;;15.57;49.74;98061.31;4756925;29;102517;-96
2021/04/22 02:17:06;;;;;;;;;8.25;7.50;;;;;15.58;49.69;98062.09;4771698;29;102267;-96
2021/04/22 02:19:33;;;;;;;;;8.50;7.00;;;;;15.57;49.65;98058.56;4778019;29;104204;-96
2021/04/22 02:22:00;;;;;;;;;8.00;7.00;;;;;15.56;49.76;98058.81;4743660;29;102721;-96
2021/04/22 02:24:26;;;;;;;;;7.25;6.75;;;;;15.52;49.62;98055.75;4775062;29;102240;-96
2021/04/22 02:26:53;;;;;;;;;8.00;7.75;;;;;15.57;49.68;98064.03;4744547;29;102327;-96
2021/04/22 02:29:20;;;;;;;;;8.00;6.00;;;;;15.53;49.81;98057.41;4752410;29;104107;-96
2021/04/22 02:31:47;;;;;;;;;7.00;7.00;;;;;15.51;49.93;98056.81;4775654;29;102153;-96
2021/04/22 02:34:14;;;;;;;;;8.25;8.25;;;;;15.53;49.59;98056.59;4739383;29;104012;-96
2021/04/22 02:36:41;;;;;;;;;10.50;8.25;;;;;15.49;49.75;98047.22;4760958;29;102673;-96
2021/04/22 02:39:08;;;;;;;;;7.50;6.50;;;;;15.54;49.75;98045.41;4771331;29;103056;-96
2021/04/22 02:41:35;;;;;;;;;7.25;7.00;;;;;15.54;49.77;98045.41;4743610;29;103065;-96
2021/04/22 02:44:02;;;;;;;;;7.25;6.00;;;;;15.51;49.74;98034.19;4758736;29;103615;-96
2021/04/22 02:46:29;;;;;;;;;9.00;9.00;;;;;15.51;49.59;98029.56;4774877;29;102557;-96
2021/04/22 02:48:56;;;;;;;;;7.00;7.00;;;;;15.52;49.58;98039.41;4769273;29;104044;-96
2021/04/22 02:51:23;;;;;;;;;9.75;8.75;;;;;15.51;49.58;98035.03;4751466;29;102173;-96
2021/04/22 02:53:50;;;;;;;;;8.00;6.00;;;;;15.52;49.70;98030.41;4770512;29;102279;-96
2021/04/22 02:56:17;;;;;;;;;7.75;7.00;;;;;15.52;49.96;98033.13;4762068;29;102381;-96
2021/04/22 02:58:46;;;;;;;;;8.00;7.00;;;;;15.51;49.75;98034.19;4768759;29;107159;-96
2021/04/22 03:01:13;;;;;;;;;7.00;7.00;;;;;15.47;49.78;98022.09;4748968;29;102915;-96
2021/04/22 03:03:40;;;;;;;;;7.25;7.00;;;;;15.46;49.50;98023.16;4738513;29;102641;-96
2021/04/22 03:06:07;;;;;;;;;7.25;6.00;;;;;15.49;49.75;98044.50;4755018;29;102568;-96
2021/04/22 03:08:34;;;;;;;;;9.00;8.50;;;;;15.44;49.55;98038.97;4768608;29;103008;-96
2021/04/22 03:11:01;;;;;;;;;8.50;7.00;;;;;15.47;49.96;98043.91;4769677;29;103005;-96
2021/04/22 03:13:28;;;;;;;;;8.50;8.00;;;;;15.45;49.55;98041.41;4775136;29;102517;-96
2021/04/22 03:15:55;;;;;;;;;9.25;8.00;;;;;15.42;49.61;98047.38;4760861;29;102853;-96
2021/04/22 03:18:22;;;;;;;;;9.25;8.25;;;;;15.46;49.78;98053.97;4771878;29;104400;-96
2021/04/22 03:20:49;;;;;;;;;8.75;7.50;;;;;15.44;49.54;98052.56;4757822;29;102160;-94
2021/04/22 03:23:16;;;;;;;;;9.25;7.00;;;;;15.47;49.63;98066.53;4775646;29;102282;-95
2021/04/22 03:25:42;;;;;;;;;7.75;6.25;;;;;15.46;49.71;98059.41;4772598;29;102527;-96
2021/04/22 03:28:09;;;;;;;;;8.75;8.00;;;;;15.41;49.55;98056.59;4770604;29;104040;-95
2021/04/22 03:30:36;;;;;;;;;6.50;6.00;;;;;15.40;49.81;98056.88;4770990;29;102703;-96
2021/04/22 03:33:03;;;;;;;;;7.75;7.25;;;;;15.42;49.54;98065.59;4743305;29;104013;-96
2021/04/22 03:35:31;;;;;;;;;9.25;6.00;;;;;15.43;49.97;98072.72;4757752;29;102246;-96
2021/04/22 03:37:57;;;;;;;;;9.25;6.50;;;;;15.44;49.57;98077.94;4765328;29;104044;-96
2021/04/22 03:40:25;;;;;;;;;4.00;3.25;;;;;15.40;49.35;98065.84;4742798;29;103992;-96
2021/04/22 03:42:53;;;;;;;;;8.25;7.75;;;;;15.40;49.66;98074.00;4759843;29;102744;-96
2021/04/22 03:45:20;;;;;;;;;8.00;6.00;;;;;15.39;49.71;98071.56;4774142;29;102224;-96
2021/04/22 03:47:47;;;;;;;;;6.50;5.50;;;;;15.36;49.85;98070.13;4762456;29;104311;-96
2021/04/22 03:50:14;;;;;;;;;9.00;7.75;;;;;15.42;50.01;98079.22;4757037;29;104028;-96
2021/04/22 03:52:41;;;;;;;;;8.00;6.75;;;;;15.40;49.36;98070.50;4743344;29;102165;-96
2021/04/22 03:55:09;;;;;;;;;6.25;6.25;;;;;15.40;49.70;98078.66;4754962;29;103967;-96
2021/04/22 03:57:37;;;;;;;;;7.00;7.00;;;;;15.40;49.53;98084.13;4759523;29;104053;-96
2021/04/22 04:00:09;;;;;;;;;8.00;8.00;;;;;15.37;49.44;98071.78;4756462;29;102493;-96
2021/04/22 04:02:36;;;;;;;;;10.75;6.75;;;;;15.36;49.61;98081.03;4778710;29;103674;-96
2021/04/22 04:05:04;;;;;;;;;7.00;6.00;;;;;15.39;49.43;98085.19;4777548;29;103099;-96
2021/04/22 04:07:31;;;;;;;;;5.25;5.00;;;;;15.36;49.69;98080.19;4755062;29;103663;-96
2021/04/22 04:09:58;;;;;;;;;7.50;7.00;;;;;15.42;49.56;98087.41;4781325;29;102614;-95
2021/04/22 04:12:26;;;;;;;;;9.75;7.50;;;;;15.38;49.51;98088.97;4773023;29;102155;-95
2021/04/22 04:14:54;;;;;;;;;7.75;6.75;;;;;15.38;49.69;98100.69;4766762;29;103898;-96
2021/04/22 04:17:21;;;;;;;;;9.00;7.00;;;;;15.39;49.37;98101.53;4743085;29;102888;-96
2021/04/22 04:19:48;;;;;;;;;6.50;6.50;;;;;15.37;49.27;98099.03;4773208;29;102689;-96
2021/04/22 04:22:15;;;;;;;;;8.00;7.00;;;;;15.39;49.62;98117.88;4756342;29;102328;-96
2021/04/22 04:24:41;;;;;;;;;10.50;7.25;;;;;15.39;49.02;98113.25;4772696;29;103773;-96
2021/04/22 04:27:08;;;;;;;;;6.25;6.00;;;;;15.39;49.83;98121.41;4771797;29;104036;-96
2021/04/22 04:29:35;;;;;;;;;7.00;6.00;;;;;15.33;49.33;98118.84;4770694;29;102413;-96
2021/04/22 04:32:02;;;;;;;;;8.75;8.75;;;;;15.35;49.39;98122.97;4773805;29;102287;-96
2021/04/22 04:34:29;;;;;;;;;7.00;6.00;;;;;15.37;49.22;98130.91;4765169;29;102237;-96
2021/04/22 04:37:06;;;;;;;;;9.50;7.25;;;;;15.34;49.32;98131.38;4758998;29;106871;-96
2021/04/22 04:39:32;;;;;;;;;7.00;7.00;;;;;15.33;49.27;98124.28;4767402;29;102401;-96
2021/04/22 04:41:59;;;;;;;;;8.00;8.00;;;;;15.37;49.47;98141.78;4762172;29;102522;-96
2021/04/22 04:44:26;;;;;;;;;8.00;8.00;;;;;15.35;49.38;98133.06;4769119;29;102253;-96
2021/04/22 04:46:53;;;;;;;;;11.50;7.00;;;;;15.35;49.78;98142.06;4757376;29;104031;-96
2021/04/22 04:49:20;;;;;;;;;9.75;9.00;;;;;15.34;49.41;98150.47;4776224;29;102168;-96
2021/04/22 04:51:47;;;;;;;;;8.50;7.75;;;;;15.34;49.55;98142.28;4757651;29;102625;-96
2021/04/22 04:54:15;;;;;;;;;7.00;6.00;;;;;15.35;49.38;98143.94;4760106;29;102241;-96
2021/04/22 04:56:42;;;;;;;;;7.50;6.75;;;;;15.34;49.44;98150.47;4760520;29;104030;-96
2021/04/22 04:59:09;;;;;;;;;6.00;6.00;;;;;15.32;49.47;98144.41;4758063;29;102196;-97
2021/04/22 05:01:37;;;;;;;;;6.00;5.00;;;;;15.37;49.21;98158.13;4766663;29;104110;-96
2021/04/22 05:04:04;;;;;;;;;7.00;6.00;;;;;15.32;49.27;98155.31;4748153;29;102273;-96
2021/04/22 05:06:32;;;;;;;;;7.00;7.00;;;;;15.35;49.32;98165.75;4757105;29;104334;-96
2021/04/22 05:08:59;;;;;;;;;6.75;5.50;;;;;15.35;49.52;98161.13;4778541;29;102181;-96
2021/04/22 05:11:26;;;;;;;;;6.25;5.25;;;;;15.31;49.67;98165.38;4750551;29;103498;-96
2021/04/22 05:13:53;;;;;;;;;9.00;8.00;;;;;15.32;49.61;98160.75;4772484;29;102590;-96
2021/04/22 05:16:19;;;;;;;;;7.00;6.00;;;;;15.36;49.36;98172.81;4776588;29;104224;-96
2021/04/22 05:18:46;;;;;;;;;7.50;7.25;;;;;15.32;49.30;98172.47;4755468;29;102334;-96
2021/04/22 05:21:14;;;;;;;;;7.00;7.00;;;;;15.32;49.35;98177.94;4773818;29;102169;-96
2021/04/22 05:23:41;;;;;;;;;7.50;7.00;;;;;15.35;49.01;98176.63;4760046;29;103486;-96
2021/04/22 05:26:08;;;;;;;;;6.75;5.75;;;;;15.32;49.56;98182.53;4773016;29;104150;-96
2021/04/22 05:28:35;;;;;;;;;6.50;5.50;;;;;15.33;49.70;98185.03;4775189;29;102754;-96
2021/04/22 05:31:02;;;;;;;;;10.00;7.75;;;;;15.35;49.13;98192.97;4763444;29;102549;-96
2021/04/22 05:33:29;;;;;;;;;6.75;6.25;;;;;15.36;49.70;98200.06;4763754;29;102725;-96
2021/04/22 05:36:01;;;;;;;;;8.25;7.00;;;;;15.33;49.36;98192.38;4773384;29;108967;-96
2021/04/22 05:38:28;;;;;;;;;7.00;7.00;;;;;15.31;49.02;98195.34;4771490;29;102164;-96
2021/04/22 05:40:55;;;;;;;;;6.75;4.75;;;;;15.34;49.19;98203.03;4774813;29;103419;-96
2021/04/22 05:43:21;;;;;;;;;6.00;5.25;;;;;15.36;49.38;98200.06;4775237;29;103479;-96
2021/04/22 05:45:48;;;;;;;;;5.00;5.00;;;;;15.32;49.42;98205.16;4775541;29;104138;-96
2021/04/22 05:48:16;;;;;;;;;6.75;6.75;;;;;15.31;49.51;98198.06;4759420;29;102247;-96
2021/04/22 05:50:45;;;;;;;;;7.25;6.25;;;;;15.31;49.56;98203.50;4771762;29;102265;-96
2021/04/22 05:53:12;;;;;;;;;7.00;6.75;;;;;15.35;49.49;98222.94;4760913;29;103337;-96
2021/04/22 05:55:39;;;;;;;;;9.25;7.75;;;;;15.36;49.36;98219.97;4773021;29;104257;-96
2021/04/22 05:58:06;;;;;;;;;5.00;4.00;;;;;15.32;49.00;98216.06;4772489;29;102556;-96
2021/04/22 06:00:33;;;;;;;;;7.00;6.50;;;;;15.34;49.24;98210.38;4775913;29;102091;-96
2021/04/22 06:03:00;;;;;;;;;8.50;7.00;;;;;15.34;49.35;98216.66;4784280;29;102351;-96
2021/04/22 06:05:27;;;;;;;;;8.00;6.25;;;;;15.34;49.11;98219.41;4758018;29;104099;-96
2021/04/22 06:07:54;;;;;;;;;7.00;6.25;;;;;15.37;49.45;98228.97;4757986;29;103418;-96
2021/04/22 06:10:21;;;;;;;;;6.75;6.25;;;;;15.37;49.33;98224.34;4776240;29;102473;-96
2021/04/22 06:12:48;;;;;;;;;5.75;5.50;;;;;15.35;49.27;98233.84;4751129;29;102320;-96
2021/04/22 06:15:16;;;;;;;;;6.25;5.50;;;;;15.33;49.14;98228.63;4776896;29;104559;-96
2021/04/22 06:17:43;;;;;;;;;7.00;6.50;;;;;15.37;49.15;98245.31;4782890;29;102148;-96
2021/04/22 06:20:21;;;;;;;;;7.50;6.75;;;;;15.34;49.30;98243.09;4728146;29;103575;-96
2021/04/22 06:22:48;;;;;;;;;7.00;6.25;;;;;15.37;49.15;98253.50;4741439;29;105714;-96
2021/04/22 06:25:17;;;;;;;;;6.00;5.00;;;;;15.35;49.11;98248.28;4784608;29;103182;-96
2021/04/22 06:27:44;;;;;;;;;5.75;5.75;;;;;15.32;49.62;98243.31;4765586;29;104911;-96
2021/04/22 06:30:12;;;;;;;;;5.50;5.50;;;;;15.31;49.26;98247.09;4730847;29;102874;-96
2021/04/22 06:32:38;;;;;;;;;7.00;6.00;;;;;15.31;49.16;98252.53;4766975;29;102608;-96
2021/04/22 06:35:06;;;;;;;;;5.50;5.00;;;;;15.33;49.43;98252.31;4777067;29;103054;-96
2021/04/22 06:37:38;;;;;;;;;5.50;4.75;;;;;15.33;49.22;98258.59;4773401;29;103597;-96
2021/04/22 06:40:10;;;;;;;;;6.00;6.00;;;;;15.31;49.26;98260.72;4778115;29;102046;-96
2021/04/22 06:42:38;;;;;;;;;7.25;6.00;;;;;15.34;49.00;98270.31;4779454;29;102772;-96
2021/04/22 06:45:05;;;;;;;;;6.00;5.50;;;;;15.32;49.31;98280.63;4760860;29;104027;-96
2021/04/22 06:47:32;;;;;;;;;8.00;6.75;;;;;15.34;49.19;98284.78;4763502;29;102495;-96
2021/04/22 06:50:00;;;;;;;;;6.00;5.00;;;;;15.32;48.97;98297.78;4784651;29;103977;-96
2021/04/22 06:52:26;;;;;;;;;6.50;6.25;;;;;15.30;49.37;98293.66;4778336;29;103135;-96
2021/04/22 06:54:53;;;;;;;;;5.75;5.00;;;;;15.32;48.92;98296.97;4776008;29;103113;-96
2021/04/22 06:57:20;;;;;;;;;5.75;5.00;;;;;15.26;49.29;98297.94;4772400;29;103419;-96
2021/04/22 06:59:47;;;;;;;;;6.75;5.50;;;;;15.27;49.54;98308.56;4760552;29;102426;-96
2021/04/22 07:02:14;;;;;;;;;6.00;5.00;;;;;15.29;49.06;98320.06;4747039;29;105211;-96
2021/04/22 07:04:42;;;;;;;;;6.25;5.50;;;;;15.27;49.18;98315.91;4780865;29;103649;-96
2021/04/22 07:07:08;;;;;;;;;7.75;6.00;;;;;15.30;49.00;98327.19;4760562;29;102238;-96
2021/04/22 07:09:36;;;;;;;;;6.00;5.75;;;;;15.30;49.09;98339.97;4775574;29;102336;-96
2021/04/22 07:12:03;;;;;;;;;4.00;4.00;;;;;15.32;49.42;98346.81;4770562;29;102481;-96
2021/04/22 07:14:30;;;;;;;;;7.00;6.00;;;;;15.28;49.54;98339.38;4761528;29;108578;-96
2021/04/22 07:17:00;;;;;;;;;5.00;4.00;;;;;15.30;49.46;98350.88;4776306;29;102538;-96
2021/04/22 07:19:27;;;;;;;;;6.75;5.50;;;;;15.30;49.19;98356.31;4777578;29;102189;-96
2021/04/22 07:21:54;;;;;;;;;7.00;5.00;;;;;15.29;49.67;98352.75;4763913;29;102325;-96
2021/04/22 07:24:21;;;;;;;;;5.25;5.00;;;;;15.28;49.26;98366.59;4757993;29;104167;-96
2021/04/22 07:26:48;;;;;;;;;5.25;5.25;;;;;15.29;49.34;98363.66;4765515;29;103903;-96
2021/04/22 07:29:15;;;;;;;;;6.50;5.00;;;;;15.28;49.13;98381.06;4776922;29;103762;-96
2021/04/22 07:31:42;;;;;;;;;5.75;5.25;;;;;15.28;48.97;98377.50;4779665;29;102195;-96
2021/04/22 07:34:09;;;;;;;;;6.00;5.75;;;;;15.30;48.86;98383.56;4747451;29;104271;-96
2021/04/22 07:36:36;;;;;;;;;8.50;4.00;;;;;15.31;49.21;98396.13;4778226;29;102565;-95
2021/04/22 07:39:03;;;;;;;;;4.25;4.25;;;;;15.27;49.10;98386.72;4778178;29;102314;-96
2021/04/22 07:41:30;;;;;;;;;6.75;6.00;;;;;15.25;49.00;98383.44;4762981;29;103070;-96
2021/04/22 07:43:57;;;;;;;;;7.00;6.25;;;;;15.22;49.35;98389.38;4746665;29;103266;-96
2021/04/22 07:46:25;;;;;;;;;5.00;5.00;;;;;15.23;49.15;98386.38;4727890;29;102551;-96
2021/04/22 07:48:52;;;;;;;;;7.00;5.00;;;;;15.24;48.92;98381.78;4669466;29;102639;-96
2021/04/22 07:51:19;;;;;;;;;5.00;4.00;;;;;15.22;49.14;98389.38;4712482;29;102217;-96
2021/04/22 07:53:50;;;;;;;;;6.00;6.00;;;;;15.23;48.97;98394.56;4713829;29;103439;-96
2021/04/22 07:56:17;;;;;;;;;7.00;5.50;;;;;15.22;48.95;98411.97;4684802;29;103946;-96
2021/04/22 07:58:44;;;;;;;;;4.75;4.75;;;;;15.20;48.83;98408.66;4745732;29;102284;-96
2021/04/22 08:01:12;;;;;;;;;4.25;4.25;;;;;15.23;49.30;98423.69;4710776;29;102238;-96
2021/04/22 08:03:39;;;;;;;;;6.75;5.00;;;;;15.24;49.40;98441.69;4728882;29;103337;-96
2021/04/22 08:06:07;;;;;;;;;4.25;4.25;;;;;15.21;49.48;98425.84;4757800;29;103643;-96
2021/04/22 08:08:34;;;;;;;;;4.00;3.00;;;;;15.22;48.88;98443.84;4724120;29;103034;-96
2021/04/22 08:11:01;;;;;;;;;6.00;5.00;;;;;15.24;48.94;98444.41;4726358;29;103847;-96
2021/04/22 08:13:29;;;;;;;;;7.25;4.25;;;;;15.27;49.01;98454.84;4757188;29;104828;-96
2021/04/22 08:15:58;;;;;;;;;5.00;5.00;;;;;15.19;49.17;98445.97;4738921;29;103079;-96
2021/04/22 08:18:31;;;;;;;;;4.00;4.00;;;;;15.18;48.69;98444.28;4743660;29;101834;-96
2021/04/22 08:20:58;;;;;;;;;5.50;5.00;;;;;15.16;48.99;98459.22;4749588;29;103069;-96
2021/04/22 08:23:27;;;;;;;;;5.75;5.00;;;;;15.23;48.94;98473.53;4766902;29;104682;-96
2021/04/22 08:25:59;;;;;;;;;5.25;4.75;;;;;15.21;49.18;98472.97;4741425;29;102179;-96
2021/04/22 08:28:27;;;;;;;;;5.25;4.00;;;;;15.15;48.90;98465.72;4753229;29;102400;-96
2021/04/22 08:30:58;;;;;;;;;4.50;4.50;;;;;15.24;49.07;98482.56;4757889;29;102632;-96
2021/04/22 08:33:26;;;;;;;;;4.75;4.75;;;;;15.17;49.31;98467.13;4747968;29;103273;-96
2021/04/22 08:35:54;;;;;;;;;4.00;4.00;;;;;15.13;48.97;98452.31;4750937;29;102433;-96
2021/04/22 08:38:21;;;;;;;;;4.25;4.25;;;;;15.18;49.47;98476.13;4751376;29;105533;-96
2021/04/22 08:40:49;;;;;;;;;5.25;5.00;;;;;15.18;48.89;98490.59;4737016;29;102270;-96
2021/04/22 08:43:16;;;;;;;;;7.00;6.00;;;;;15.21;49.19;98485.75;4760391;29;102983;-96
2021/04/22 08:45:43;;;;;;;;;4.25;4.00;;;;;15.18;48.90;98496.03;4752998;29;102797;-96
2021/04/22 08:48:11;;;;;;;;;6.00;6.00;;;;;15.14;49.24;98481.22;4757807;29;102848;-96
2021/04/22 08:50:39;;;;;;;;;6.50;5.00;;;;;15.16;49.18;98479.13;4756468;29;103740;-96
2021/04/22 08:53:10;;;;;;;;;5.00;4.00;;;;;15.14;49.04;98475.78;4761232;29;102569;-96
2021/04/22 08:55:40;;;;;;;;;5.00;5.00;;;;;15.11;48.99;98467.25;4751347;29;102847;-96
2021/04/22 08:58:08;;;;;;;;;6.00;4.75;;;;;15.14;48.78;98472.22;4757633;29;102599;-96
2021/04/22 09:00:42;;;;;;;;;5.50;5.25;;;;;15.15;48.97;98477.44;4747847;29;103495;-96
2021/04/22 09:03:09;;;;;;;;;6.00;4.75;;;;;15.21;48.65;98483.03;4751995;29;108238;-96
2021/04/22 09:05:36;;;;;;;;;5.75;4.00;;;;;15.14;48.88;98467.63;4742483;29;102160;-96
2021/04/22 09:08:04;;;;;;;;;5.75;5.00;;;;;15.11;49.00;98469.97;4734826;29;102630;-96
2021/04/22 09:10:31;;;;;;;;;4.25;3.00;;;;;15.17;49.01;98475.31;4739081;29;102701;-96
2021/04/22 09:13:01;;;;;;;;;5.00;4.00;;;;;15.24;48.82;98490.72;4755253;29;102219;-96
2021/04/22 09:15:31;;;;;;;;;5.00;4.00;;;;;15.24;48.89;98491.56;4760811;29;102206;-96
2021/04/22 09:18:04;;;;;;;;;5.50;5.25;;;;;15.15;49.17;98469.28;4758869;29;102319;-96
2021/04/22 09:20:37;;;;;;;;;4.75;4.00;;;;;15.21;48.85;98480.31;4761097;29;102515;-97
2021/04/22 09:23:14;;;;;;;;;5.00;4.50;;;;;15.26;48.90;98491.34;4731667;29;108864;-96
2021/04/22 09:25:41;;;;;;;;;4.75;4.50;;;;;15.24;49.06;98491.56;4758884;29;102284;-96
2021/04/22 09:28:08;;;;;;;;;3.75;3.75;;;;;15.18;48.53;98476.13;4751506;29;102539;-96
2021/04/22 09:30:43;;;;;;;;;5.00;4.50;;;;;15.19;49.01;98477.81;4726115;29;102696;-96
2021/04/22 09:33:20;;;;;;;;;5.00;4.25;;;;;15.25;48.80;98486.94;4741461;29;106129;-96
2021/04/22 09:35:48;;;;;;;;;4.00;4.00;;;;;15.22;48.78;98487.41;4744620;29;105519;-96
2021/04/22 09:38:15;;;;;;;;;3.50;3.00;;;;;15.18;49.03;98470.69;4717713;29;102680;-96
2021/04/22 09:40:50;;;;;;;;;4.50;4.00;;;;;15.26;49.00;98486.72;4752985;29;103593;-96
2021/04/22 09:43:18;;;;;;;;;4.00;4.00;;;;;15.18;48.79;98479.69;4724059;29;103751;-96
2021/04/22 09:45:46;;;;;;;;;5.00;4.00;;;;;15.20;48.89;98479.47;4743438;29;103172;-96
2021/04/22 09:48:29;;;;;;;;;3.75;3.25;;;;;15.27;48.76;98495.69;4724964;29;102563;-96
2021/04/22 09:51:00;;;;;;;;;4.00;3.00;;;;;15.26;48.97;98472.28;4724654;29;102160;-96
2021/04/22 09:53:28;;;;;;;;;3.25;3.00;;;;;15.25;48.91;98476.03;4741038;29;104077;-96
2021/04/22 09:56:08;;;;;;;;;1.00;1.00;;;;;15.25;48.72;98476.88;4743966;29;102294;-96
2021/04/22 09:58:34;;;;;;;;;4.00;4.00;;;;;15.26;48.36;98472.28;4744619;29;102733;-96
2021/04/22 10:01:02;;;;;;;;;4.00;4.00;;;;;15.24;48.86;98466.22;4744758;29;103881;-96
2021/04/22 10:03:29;;;;;;;;;4.00;4.00;;;;;15.28;48.88;98481.84;4736673;29;103421;-96
2021/04/22 10:05:58;;;;;;;;;5.25;4.00;;;;;15.30;48.60;98489.81;4722686;29;102599;-96
2021/04/22 10:08:25;;;;;;;;;3.50;3.00;;;;;15.28;49.00;98486.47;4741208;29;102254;-96
2021/04/22 10:10:55;;;;;;;;;4.25;4.25;;;;;15.31;48.84;98491.47;4742244;29;102796;-96
2021/04/22 10:13:22;;;;;;;;;3.50;3.00;;;;;15.28;48.57;98481.84;4736078;29;104207;-96
2021/04/22 10:15:55;;;;;;;;;4.75;4.00;;;;;15.30;48.82;98481.63;4724436;29;103864;-96
2021/04/22 10:18:33;;;;;;;;;4.25;4.00;;;;;15.31;48.41;98477.84;4742853;29;102412;-96
2021/04/22 10:21:00;;;;;;;;;4.00;4.00;;;;;15.34;48.65;98488.25;4746924;29;102896;-96
2021/04/22 10:23:29;;;;;;;;;3.25;2.50;;;;;15.36;48.58;98483.41;4743227;29;104549;-96
2021/04/22 10:25:56;;;;;;;;;4.00;4.00;;;;;15.32;48.66;98482.22;4746288;29;102173;-96
2021/04/22 10:28:23;;;;;;;;;3.50;3.00;;;;;15.30;48.42;98478.91;4762223;29;103643;-96
2021/04/22 10:30:52;;;;;;;;;4.00;3.50;;;;;15.37;48.70;98490.50;4756548;29;104197;-96
2021/04/22 10:33:19;;;;;;;;;5.75;4.75;;;;;15.32;48.65;98474.03;4763775;29;104104;-96
2021/04/22 10:35:46;;;;;;;;;4.00;4.00;;;;;15.36;48.69;98483.41;4747865;29;102758;-96
2021/04/22 10:38:13;;;;;;;;;2.50;2.50;;;;;15.39;48.44;98491.13;4762085;29;102746;-96
2021/04/22 10:40:43;;;;;;;;;5.00;4.00;;;;;15.36;48.48;98486.13;4763723;29;103116;-96
2021/04/22 10:43:23;;;;;;;;;4.00;3.00;;;;;15.41;48.40;98502.59;4765931;29;104109;-96
2021/04/22 10:45:51;;;;;;;;;3.00;3.00;;;;;15.40;48.44;98484.63;4781436;29;102198;-96
2021/04/22 10:48:17;;;;;;;;;4.00;3.75;;;;;15.37;48.17;98491.34;4777695;29;102382;-96
2021/04/22 10:50:48;;;;;;;;;4.75;3.00;;;;;15.34;48.61;98485.53;4780606;29;102195;-96
2021/04/22 10:53:19;;;;;;;;;3.75;3.75;;;;;15.43;48.19;98492.31;4775640;29;104038;-96
2021/04/22 10:55:46;;;;;;;;;4.75;4.00;;;;;15.42;48.46;98485.19;4747303;29;103610;-96
2021/04/22 10:58:17;;;;;;;;;5.25;4.00;;;;;15.43;48.18;98482.25;4780267;29;102750;-96
2021/04/22 11:00:47;;;;;;;;;4.00;4.00;;;;;15.43;48.18;98484.97;4781199;29;102581;-96
2021/04/22 11:03:23;;;;;;;;;3.00;3.00;;;;;15.43;48.49;98479.53;4760268;29;110608;-96
2021/04/22 11:06:10;;;;;;;;;5.75;3.00;;;;;15.40;48.41;98490.88;4760628;29;103214;-96
2021/04/22 11:08:40;;;;;;;;;3.00;3.00;;;;;15.44;48.43;98483.06;4764077;29;102387;-96
2021/04/22 11:11:16;;;;;;;;;6.25;4.50;;;;;15.43;48.22;98484.13;4779001;29;102464;-96
2021/04/22 11:13:44;;;;;;;;;4.00;4.00;;;;;15.41;48.58;98484.34;4776928;29;104368;-96
2021/04/22 11:16:11;;;;;;;;;3.75;3.00;;;;;15.44;48.05;98486.63;4780823;29;102516;-96
2021/04/22 11:18:45;;;;;;;;;3.50;3.00;;;;;15.40;48.65;98481.88;4761719;29;102658;-96
2021/04/22 11:21:31;;;;;;;;;4.00;4.00;;;;;15.41;48.08;98478.06;4776282;29;102629;-96
2021/04/22 11:24:01;;;;;;;;;3.75;3.00;;;;;15.38;47.96;98473.09;4777170;29;104206;-96
2021/04/22 11:26:32;;;;;;;;;3.00;2.00;;;;;15.46;48.16;98489.09;4775162;29;102376;-96
2021/04/22 11:29:49;;;;;;;;;4.00;4.00;;;;;15.44;47.71;98483.91;4770398;29;102522;-96